This is the latest recevied weather packets stored in our database for station/object KB1FFS. If no packets are shown the sender has not sent any weather packets the latest 10 day(s).
| Time | Temp. | Humidity | Pressure | Rain* | Wind** | Luminosity | Snow |
|---|---|---|---|---|---|---|---|
| 1777759750 | 28.33° C | 32% | 1020.3 hPa | 0 mm | - | 558 W/m² | - |
| 1777759446 | 27.78° C | 33% | 1020.1 hPa | 0 mm | - | 587 W/m² | - |
| 1777759143 | 27.78° C | 33% | 1020.4 hPa | 0 mm | - | 592 W/m² | - |
| 1777758840 | 27.78° C | 34% | 1020.4 hPa | 0 mm | - | 402 W/m² | - |
| 1777758537 | 27.78° C | 34% | 1020.2 hPa | 0 mm | - | 630 W/m² | - |
| 1777758234 | 27.78° C | 32% | 1020.4 hPa | 0 mm | - | 645 W/m² | - |
| 1777757931 | 27.78° C | 32% | 1020.5 hPa | 0 mm | - | 650 W/m² | - |
| 1777757628 | 27.78° C | 31% | 1020.4 hPa | 0 mm | - | 687 W/m² | - |
| 1777757327 | 27.22° C | 35% | 1020.7 hPa | 0 mm | - | 727 W/m² | - |
| 1777757025 | 28.33° C | 32% | 1020.8 hPa | 0 mm | - | 122 W/m² | - |
| 1777756722 | 28.33° C | 34% | 1020.7 hPa | 0 mm | - | 714 W/m² | - |
| 1777756417 | 27.78° C | 30% | 1020.8 hPa | 0 mm | - | 734 W/m² | - |
| 1777756115 | 27.22° C | 37% | 1021 hPa | 0 mm | - | 736 W/m² | - |
| 1777755812 | 27.78° C | 32% | 1021.1 hPa | 0 mm | - | 729 W/m² | - |
| 1777755509 | 28.33° C | 30% | 1021 hPa | 0 mm | - | 752 W/m² | - |
| 1777755205 | 27.78° C | 31% | 1021 hPa | 0 mm | - | 773 W/m² | - |
| 1777754902 | 27.78° C | 31% | 1021 hPa | 0 mm | - | 792 W/m² | - |
| 1777754600 | 27.22° C | 32% | 1021 hPa | 0 mm | - | 804 W/m² | - |
| 1777754297 | 27.78° C | 31% | 1021.2 hPa | 0 mm | - | 797 W/m² | - |
| 1777753995 | 27.78° C | 32% | 1021.2 hPa | 0 mm | - | 827 W/m² | - |
| 1777753695 | 27.78° C | 31% | 1021.5 hPa | 0 mm | - | 822 W/m² | - |
| 1777753393 | 27.78° C | 32% | 1021.4 hPa | 0 mm | - | 832 W/m² | - |
| 1777753091 | 26.67° C | 37% | 1021.6 hPa | 0 mm | - | 834 W/m² | - |
| 1777752786 | 27.22° C | 32% | 1021.7 hPa | 0 mm | - | 840 W/m² | - |
| 1777752483 | 27.22° C | 35% | 1021.8 hPa | 0 mm | - | 851 W/m² | - |
* Rain latest hour (hover to see other rain measurements)
** Current wind speed in m/s (hover to see current wind gust speed)